createdAt,value
2022-12-26T00:00:32.703Z,10.10
2022-12-26T00:02:59.773Z,10.10
2022-12-26T00:05:26.795Z,10.10
2022-12-26T00:07:55.048Z,10.10
2022-12-26T00:10:21.961Z,10.00
2022-12-26T00:12:48.839Z,10.00
2022-12-26T00:15:15.741Z,10.00
2022-12-26T00:17:42.559Z,10.00
2022-12-26T00:20:10.408Z,10.00
2022-12-26T00:22:37.288Z,10.00
2022-12-26T00:25:08.147Z,10.00
2022-12-26T00:27:35.009Z,10.00
2022-12-26T00:30:01.875Z,10.00
2022-12-26T00:32:28.703Z,10.00
2022-12-26T00:34:55.567Z,10.00
2022-12-26T00:37:22.475Z,10.00
2022-12-26T00:39:49.311Z,10.00
2022-12-26T00:42:17.617Z,10.10
2022-12-26T00:44:44.462Z,10.10
2022-12-26T00:47:11.344Z,10.10
2022-12-26T00:50:15.016Z,10.10
2022-12-26T00:52:25.343Z,10.10
2022-12-26T00:54:52.201Z,10.10
2022-12-26T00:57:20.532Z,10.10
2022-12-26T00:59:47.360Z,10.20
2022-12-26T01:02:32.885Z,10.20
2022-12-26T01:04:59.739Z,10.20
2022-12-26T01:07:26.586Z,10.20
2022-12-26T01:09:53.414Z,10.30
2022-12-26T01:12:21.601Z,10.30
2022-12-26T01:14:48.452Z,10.30
2022-12-26T01:17:15.323Z,10.20
2022-12-26T01:19:42.167Z,10.30
2022-12-26T01:22:09.068Z,10.30
2022-12-26T01:24:35.874Z,10.30
2022-12-26T01:27:02.746Z,10.30
2022-12-26T01:29:30.922Z,10.30
2022-12-26T01:31:57.844Z,10.30
2022-12-26T01:34:24.803Z,10.30
2022-12-26T01:36:52.121Z,10.30
2022-12-26T01:39:19.204Z,10.30
2022-12-26T01:41:46.247Z,10.30
2022-12-26T01:44:46.700Z,10.30
2022-12-26T01:47:15.844Z,10.30
2022-12-26T01:49:44.248Z,10.40
2022-12-26T01:52:16.203Z,10.30
2022-12-26T01:54:46.995Z,10.30
2022-12-26T01:57:20.761Z,10.30
2022-12-26T01:59:50.026Z,10.40
2022-12-26T02:02:20.758Z,10.40
2022-12-26T02:05:10.016Z,10.40
2022-12-26T02:07:41.834Z,10.40
2022-12-26T02:10:14.688Z,10.40
2022-12-26T02:12:41.663Z,10.40
2022-12-26T02:15:12.361Z,10.40
2022-12-26T02:17:41.349Z,10.40
2022-12-26T02:20:17.519Z,10.40
2022-12-26T02:23:23.783Z,10.40
2022-12-26T02:26:19.658Z,10.30
2022-12-26T02:29:08.164Z,10.30
2022-12-26T02:31:43.433Z,10.30
2022-12-26T02:34:15.997Z,10.30
2022-12-26T02:37:12.772Z,10.30
2022-12-26T02:39:56.285Z,10.40
2022-12-26T02:42:33.079Z,10.40
2022-12-26T02:45:28.049Z,10.50
2022-12-26T02:48:06.697Z,10.60
2022-12-26T02:51:10.330Z,10.70
2022-12-26T02:54:03.490Z,10.70
2022-12-26T02:56:55.025Z,10.80
2022-12-26T02:59:56.516Z,10.80
2022-12-26T03:02:48.757Z,10.80
2022-12-26T03:05:41.615Z,10.80
2022-12-26T03:08:32.600Z,10.80
2022-12-26T03:11:18.614Z,10.80
2022-12-26T03:13:48.072Z,10.80
2022-12-26T03:16:36.334Z,10.80
2022-12-26T03:19:07.428Z,10.80
2022-12-26T03:21:39.674Z,10.80
2022-12-26T03:24:09.423Z,10.80
2022-12-26T03:26:40.269Z,10.80
2022-12-26T03:29:28.826Z,10.80
2022-12-26T03:31:56.036Z,10.80
2022-12-26T03:34:23.175Z,10.80
2022-12-26T03:37:13.066Z,10.80
2022-12-26T03:40:05.739Z,10.80
2022-12-26T03:42:56.178Z,10.80
2022-12-26T03:45:51.731Z,10.90
2022-12-26T03:48:45.695Z,10.90
2022-12-26T03:51:41.495Z,10.90
2022-12-26T03:54:31.022Z,10.90
2022-12-26T03:57:23.096Z,10.90
2022-12-26T04:00:16.685Z,10.90
2022-12-26T04:03:04.946Z,10.90
2022-12-26T04:05:51.785Z,10.90
2022-12-26T04:08:42.554Z,10.90
2022-12-26T04:11:34.324Z,10.90
2022-12-26T04:14:25.666Z,11.00
2022-12-26T04:17:18.664Z,11.00
2022-12-26T04:20:14.764Z,11.00
2022-12-26T04:23:07.863Z,11.00
2022-12-26T04:25:57.639Z,11.00
2022-12-26T04:28:44.354Z,11.00
2022-12-26T04:31:35.816Z,11.10
2022-12-26T04:34:24.108Z,11.10
2022-12-26T04:37:12.687Z,11.10
2022-12-26T04:40:02.242Z,11.10
2022-12-26T04:42:48.633Z,11.10
2022-12-26T04:45:17.616Z,11.10
2022-12-26T04:48:04.748Z,11.10
2022-12-26T04:50:31.814Z,11.10
2022-12-26T04:52:58.872Z,11.20
2022-12-26T04:55:27.127Z,11.20
2022-12-26T04:57:54.387Z,11.20
2022-12-26T05:00:24.999Z,11.20
2022-12-26T05:03:14.683Z,11.20
2022-12-26T05:06:06.253Z,11.20
2022-12-26T05:08:54.327Z,11.20
2022-12-26T05:11:21.553Z,11.20
2022-12-26T05:13:48.430Z,11.20
2022-12-26T05:16:35.731Z,11.20
2022-12-26T05:19:21.251Z,11.20
2022-12-26T05:22:06.807Z,11.20
2022-12-26T05:24:55.451Z,11.20
2022-12-26T05:27:41.507Z,11.20
2022-12-26T05:30:09.100Z,11.10
2022-12-26T05:32:56.100Z,11.20
2022-12-26T05:35:23.012Z,11.20
2022-12-26T05:37:49.866Z,11.20
2022-12-26T05:40:16.881Z,11.20
2022-12-26T05:42:43.768Z,11.20
2022-12-26T05:45:10.911Z,11.20
2022-12-26T05:47:39.132Z,11.30
2022-12-26T05:50:06.975Z,11.30
2022-12-26T05:52:33.887Z,11.30
2022-12-26T05:55:00.736Z,11.30
2022-12-26T05:57:27.677Z,11.30
2022-12-26T05:59:54.494Z,11.30
2022-12-26T06:02:21.515Z,11.30
2022-12-26T06:04:49.762Z,11.30
2022-12-26T06:07:16.595Z,11.30
2022-12-26T06:09:43.419Z,11.40
2022-12-26T06:12:10.314Z,11.30
2022-12-26T06:14:37.151Z,11.30
2022-12-26T06:17:03.987Z,11.30
2022-12-26T06:19:30.794Z,11.30
2022-12-26T06:21:58.978Z,11.40
2022-12-26T06:24:25.841Z,11.30
2022-12-26T06:26:53.733Z,11.40
2022-12-26T06:29:20.619Z,11.30
2022-12-26T06:31:47.697Z,11.30
2022-12-26T06:34:14.633Z,11.40
2022-12-26T06:36:41.741Z,11.30
2022-12-26T06:39:09.970Z,11.30
2022-12-26T06:41:36.811Z,11.30
2022-12-26T06:44:03.871Z,11.30
2022-12-26T06:46:30.902Z,11.30
2022-12-26T06:48:57.761Z,11.30
2022-12-26T06:51:26.527Z,11.30
2022-12-26T06:53:53.791Z,11.30
2022-12-26T06:56:23.671Z,11.30
2022-12-26T06:58:53.644Z,11.30
2022-12-26T07:01:22.459Z,11.40
2022-12-26T07:03:51.937Z,11.40
2022-12-26T07:06:23.862Z,11.40
2022-12-26T07:08:51.725Z,11.40
2022-12-26T07:11:21.941Z,11.40
2022-12-26T07:13:48.878Z,11.40
2022-12-26T07:16:15.872Z,11.40
2022-12-26T07:18:43.264Z,11.40
2022-12-26T07:21:12.892Z,11.40
2022-12-26T07:23:41.200Z,11.50
2022-12-26T07:26:08.478Z,11.50
2022-12-26T07:28:36.706Z,11.50
2022-12-26T07:31:04.040Z,11.50
2022-12-26T07:33:31.460Z,11.60
2022-12-26T07:35:59.712Z,11.60
2022-12-26T07:38:26.589Z,11.60
2022-12-26T07:40:55.275Z,11.60
2022-12-26T07:43:22.369Z,11.60
2022-12-26T07:45:52.081Z,11.60
2022-12-26T07:48:19.011Z,11.60
2022-12-26T07:50:47.353Z,11.60
2022-12-26T07:53:14.952Z,11.60
2022-12-26T07:55:41.999Z,11.60
2022-12-26T07:58:08.971Z,11.60
2022-12-26T08:00:35.934Z,11.60
2022-12-26T08:03:07.752Z,11.60
2022-12-26T08:05:35.273Z,11.60
2022-12-26T08:08:02.356Z,11.60
2022-12-26T08:10:29.309Z,11.60
2022-12-26T08:12:56.234Z,11.60
2022-12-26T08:15:23.067Z,11.60
2022-12-26T08:17:49.951Z,11.60
2022-12-26T08:20:18.228Z,11.60
2022-12-26T08:22:45.172Z,11.50
2022-12-26T08:25:18.327Z,11.50
2022-12-26T08:27:48.690Z,11.50
2022-12-26T08:30:15.707Z,11.40
2022-12-26T08:32:46.034Z,11.30
2022-12-26T08:35:13.580Z,11.40
2022-12-26T08:37:41.781Z,11.40
2022-12-26T08:40:09.668Z,11.40
2022-12-26T08:42:50.067Z,11.40
2022-12-26T08:45:24.028Z,11.40
2022-12-26T08:47:50.936Z,11.30
2022-12-26T08:50:18.197Z,11.30
2022-12-26T08:52:46.440Z,11.30
2022-12-26T08:55:13.673Z,11.20
2022-12-26T08:57:40.514Z,11.20
2022-12-26T09:00:09.991Z,11.10
2022-12-26T09:02:37.098Z,11.00
2022-12-26T09:05:04.756Z,11.00
2022-12-26T09:07:31.665Z,11.00
2022-12-26T09:09:59.884Z,11.00
2022-12-26T09:12:27.078Z,11.00
2022-12-26T09:14:53.967Z,11.00
2022-12-26T09:17:20.938Z,11.00
2022-12-26T09:19:47.827Z,11.00
2022-12-26T09:22:35.335Z,11.00
2022-12-26T09:25:04.351Z,11.00
2022-12-26T09:27:31.224Z,11.10
2022-12-26T09:29:58.068Z,11.10
2022-12-26T09:32:24.931Z,11.00
2022-12-26T09:34:51.783Z,11.00
2022-12-26T09:37:18.664Z,11.00
2022-12-26T09:39:45.497Z,11.00
2022-12-26T09:42:25.160Z,11.00
2022-12-26T09:44:59.671Z,10.90
2022-12-26T09:47:32.771Z,10.90
2022-12-26T09:50:07.453Z,10.80
2022-12-26T09:52:47.502Z,10.70
2022-12-26T09:55:29.400Z,10.70
2022-12-26T09:58:04.783Z,10.50
2022-12-26T10:00:39.146Z,10.30
2022-12-26T10:03:08.103Z,10.10
2022-12-26T10:05:40.529Z,9.80
2022-12-26T10:08:25.713Z,9.80
2022-12-26T10:11:00.850Z,9.70
2022-12-26T10:13:38.739Z,9.50
2022-12-26T10:16:11.402Z,9.50
2022-12-26T10:18:49.613Z,9.50
2022-12-26T10:21:29.259Z,9.50
2022-12-26T10:24:02.583Z,9.50
2022-12-26T10:26:32.868Z,9.40
2022-12-26T10:29:10.378Z,9.50
2022-12-26T10:31:41.148Z,9.50
2022-12-26T10:34:13.480Z,9.60
2022-12-26T10:36:45.446Z,9.60
2022-12-26T10:39:23.030Z,9.70
2022-12-26T10:41:53.041Z,9.70
2022-12-26T10:44:27.380Z,9.80
2022-12-26T10:47:17.937Z,9.80
2022-12-26T10:49:47.323Z,9.80
2022-12-26T10:52:16.434Z,9.80
2022-12-26T10:54:46.111Z,9.90
2022-12-26T10:57:13.444Z,9.90
2022-12-26T10:59:44.748Z,9.80
2022-12-26T11:02:23.234Z,9.80
2022-12-26T11:05:40.276Z,9.80
2022-12-26T11:08:15.875Z,9.80
2022-12-26T11:10:47.906Z,9.80
2022-12-26T11:13:20.679Z,9.80
2022-12-26T11:15:51.754Z,9.80
2022-12-26T11:18:27.726Z,9.70
2022-12-26T11:20:54.839Z,9.80
2022-12-26T11:23:25.536Z,9.80
2022-12-26T11:25:54.856Z,9.80
2022-12-26T11:28:31.073Z,9.80
2022-12-26T11:31:00.219Z,9.90
2022-12-26T11:33:30.329Z,9.80
2022-12-26T11:36:05.104Z,9.80
2022-12-26T11:38:39.095Z,9.80
2022-12-26T11:41:32.158Z,9.90
2022-12-26T11:44:02.878Z,9.90
2022-12-26T11:46:40.036Z,9.80
2022-12-26T11:49:17.016Z,9.90
2022-12-26T11:51:47.442Z,9.90
2022-12-26T11:54:23.962Z,9.90
2022-12-26T11:57:02.532Z,9.90
2022-12-26T11:59:29.759Z,9.90
2022-12-26T12:02:22.342Z,9.90
2022-12-26T12:04:51.019Z,9.90
2022-12-26T12:07:30.970Z,9.80
2022-12-26T12:10:06.709Z,9.90
2022-12-26T12:12:43.483Z,9.90
2022-12-26T12:15:17.811Z,10.00
2022-12-26T12:18:02.944Z,10.00
2022-12-26T12:20:36.077Z,10.00
2022-12-26T12:23:25.145Z,10.00
2022-12-26T12:26:02.158Z,10.00
2022-12-26T12:28:53.962Z,10.10
2022-12-26T12:31:30.484Z,9.90
2022-12-26T12:34:07.668Z,9.90
2022-12-26T12:36:40.750Z,9.90
2022-12-26T12:39:12.340Z,9.90
2022-12-26T12:42:10.008Z,9.90
2022-12-26T12:44:56.492Z,9.90
2022-12-26T12:47:35.231Z,9.90
2022-12-26T12:50:14.308Z,9.90
2022-12-26T12:52:50.973Z,10.00
2022-12-26T12:55:39.034Z,10.00
2022-12-26T12:58:17.030Z,9.90
2022-12-26T13:00:48.815Z,9.90
2022-12-26T13:03:28.032Z,10.00
2022-12-26T13:06:04.207Z,10.00
2022-12-26T13:08:36.180Z,10.00
2022-12-26T13:11:06.823Z,10.00
2022-12-26T13:13:37.993Z,10.00
2022-12-26T13:16:10.213Z,10.00
2022-12-26T13:18:42.315Z,10.00
2022-12-26T13:21:12.141Z,10.00
2022-12-26T13:24:02.875Z,10.00
2022-12-26T13:26:34.471Z,9.90
2022-12-26T13:29:11.895Z,10.00
2022-12-26T13:31:40.542Z,10.00
2022-12-26T13:34:14.825Z,10.00
2022-12-26T13:36:45.703Z,10.00
2022-12-26T13:39:33.955Z,10.00
2022-12-26T13:42:24.189Z,10.00
2022-12-26T13:44:53.580Z,10.10
2022-12-26T13:47:35.918Z,10.00
2022-12-26T13:50:51.584Z,10.10
2022-12-26T13:53:32.279Z,10.00
2022-12-26T13:56:00.598Z,10.10
2022-12-26T13:58:37.279Z,10.10
2022-12-26T14:01:19.827Z,10.00
2022-12-26T14:04:00.736Z,10.00
2022-12-26T14:07:03.863Z,10.00
2022-12-26T14:09:40.065Z,10.00
2022-12-26T14:12:24.435Z,10.00
2022-12-26T14:15:08.174Z,10.00
2022-12-26T14:17:45.884Z,10.00
2022-12-26T14:20:25.200Z,10.00
2022-12-26T14:23:01.930Z,10.00
2022-12-26T14:25:39.248Z,9.90
2022-12-26T14:28:17.260Z,10.00
2022-12-26T14:30:56.480Z,10.00
2022-12-26T14:33:29.369Z,10.00
2022-12-26T14:36:18.930Z,10.00
2022-12-26T14:38:51.513Z,10.00
2022-12-26T14:41:39.100Z,10.00
2022-12-26T14:44:15.502Z,10.00
2022-12-26T14:46:59.923Z,10.00
2022-12-26T14:49:38.897Z,10.10
2022-12-26T14:52:32.669Z,10.10
2022-12-26T14:54:59.807Z,10.10
2022-12-26T14:57:53.725Z,10.10
2022-12-26T15:00:33.478Z,10.10
2022-12-26T15:03:31.579Z,10.10
2022-12-26T15:06:16.703Z,10.10
2022-12-26T15:09:02.382Z,10.10
2022-12-26T15:11:48.934Z,10.00
2022-12-26T15:14:48.393Z,10.00
2022-12-26T15:17:25.901Z,10.00
2022-12-26T15:20:20.887Z,10.00
2022-12-26T15:23:15.606Z,10.00
2022-12-26T15:25:58.428Z,10.00
2022-12-26T15:28:54.773Z,9.90
2022-12-26T15:31:42.173Z,9.90
2022-12-26T15:34:40.524Z,9.80
2022-12-26T15:37:15.020Z,9.90
2022-12-26T15:39:49.299Z,9.90
2022-12-26T15:42:30.614Z,9.80
2022-12-26T15:45:13.490Z,9.80
2022-12-26T15:47:48.319Z,9.80
2022-12-26T15:50:26.731Z,9.80
2022-12-26T15:53:08.084Z,9.90
2022-12-26T15:55:47.428Z,9.90
2022-12-26T15:58:33.440Z,9.90
2022-12-26T16:01:01.273Z,9.90
2022-12-26T16:03:38.170Z,9.90
2022-12-26T16:06:31.655Z,9.80
2022-12-26T16:09:15.440Z,9.90
2022-12-26T16:11:49.650Z,9.90
2022-12-26T16:14:29.972Z,9.90
2022-12-26T16:17:16.609Z,9.80
2022-12-26T16:19:46.403Z,9.80
2022-12-26T16:22:35.989Z,9.80
2022-12-26T16:25:03.252Z,9.80
2022-12-26T16:27:30.813Z,9.70
2022-12-26T16:30:09.709Z,9.80
2022-12-26T16:32:40.761Z,9.70
2022-12-26T16:35:18.855Z,9.80
2022-12-26T16:37:46.334Z,9.80
2022-12-26T16:40:28.804Z,9.80
2022-12-26T16:42:59.376Z,9.80
2022-12-26T16:45:27.586Z,9.80
2022-12-26T16:47:55.327Z,9.80
2022-12-26T16:50:26.126Z,9.70
2022-12-26T16:53:04.813Z,9.70
2022-12-26T16:55:43.835Z,9.70
2022-12-26T16:58:20.522Z,9.60
2022-12-26T17:01:01.023Z,9.60
2022-12-26T17:03:34.515Z,9.60
2022-12-26T17:06:11.484Z,9.60
2022-12-26T17:08:42.826Z,9.60
2022-12-26T17:11:10.054Z,9.60
2022-12-26T17:13:37.255Z,9.60
2022-12-26T17:16:11.780Z,9.50
2022-12-26T17:18:47.045Z,9.50
2022-12-26T17:21:29.850Z,9.50
2022-12-26T17:24:25.175Z,9.50
2022-12-26T17:27:10.313Z,9.50
2022-12-26T17:29:53.063Z,9.50
2022-12-26T17:32:27.190Z,9.50
2022-12-26T17:34:54.348Z,9.50
2022-12-26T17:37:24.998Z,9.50
2022-12-26T17:39:57.795Z,9.50
2022-12-26T17:42:28.099Z,9.50
2022-12-26T17:44:56.777Z,9.60
2022-12-26T17:47:25.635Z,9.60
2022-12-26T17:49:53.563Z,9.60
2022-12-26T17:52:25.122Z,9.60
2022-12-26T17:54:53.039Z,9.70
2022-12-26T17:57:22.933Z,9.70
2022-12-26T17:59:50.874Z,9.70
2022-12-26T18:02:18.330Z,9.70
2022-12-26T18:04:45.652Z,9.70
2022-12-26T18:07:17.628Z,9.70
2022-12-26T18:09:47.065Z,9.60
2022-12-26T18:12:15.458Z,9.60
2022-12-26T18:14:45.295Z,9.60
2022-12-26T18:17:15.726Z,9.60
2022-12-26T18:19:42.574Z,9.60
2022-12-26T18:22:13.797Z,9.60
2022-12-26T18:24:40.953Z,9.60
2022-12-26T18:27:16.867Z,9.50
2022-12-26T18:29:43.953Z,9.40
2022-12-26T18:32:20.605Z,9.40
2022-12-26T18:34:47.516Z,9.30
2022-12-26T18:37:14.467Z,9.10
2022-12-26T18:39:41.255Z,9.00
2022-12-26T18:42:13.165Z,8.90
2022-12-26T18:44:40.265Z,8.80
2022-12-26T18:47:07.222Z,8.70
2022-12-26T18:49:34.063Z,8.50
2022-12-26T18:52:00.952Z,8.40
2022-12-26T18:54:27.815Z,8.30
2022-12-26T18:56:54.679Z,8.30
2022-12-26T18:59:22.874Z,8.30
2022-12-26T19:01:49.768Z,8.30
2022-12-26T19:04:17.490Z,8.30
2022-12-26T19:06:44.393Z,8.30
2022-12-26T19:09:12.376Z,8.30
2022-12-26T19:11:39.431Z,8.20
2022-12-26T19:14:09.774Z,8.30
2022-12-26T19:16:38.813Z,8.30
2022-12-26T19:19:05.649Z,8.30
2022-12-26T19:21:32.442Z,8.30
2022-12-26T19:23:59.373Z,8.30
2022-12-26T19:26:26.232Z,8.30
2022-12-26T19:28:54.900Z,8.30
2022-12-26T19:31:23.437Z,8.30
2022-12-26T19:33:51.748Z,8.30
2022-12-26T19:36:18.659Z,8.30
2022-12-26T19:38:45.492Z,8.30
2022-12-26T19:41:14.184Z,8.30
2022-12-26T19:43:41.205Z,8.30
2022-12-26T19:46:11.366Z,8.30
2022-12-26T19:48:39.149Z,8.30
2022-12-26T19:51:08.947Z,8.40
2022-12-26T19:53:37.100Z,8.40
2022-12-26T19:56:07.421Z,8.40
2022-12-26T19:58:34.564Z,8.50
2022-12-26T20:01:06.236Z,8.50
2022-12-26T20:03:33.344Z,8.50
2022-12-26T20:06:00.849Z,8.60
2022-12-26T20:08:29.209Z,8.60
2022-12-26T20:11:00.711Z,8.70
2022-12-26T20:13:27.808Z,8.70
2022-12-26T20:15:54.655Z,8.70
2022-12-26T20:18:21.747Z,8.60
2022-12-26T20:20:52.961Z,8.60
2022-12-26T20:23:19.837Z,8.50
2022-12-26T20:25:48.036Z,8.50
2022-12-26T20:28:15.152Z,8.50
2022-12-26T20:30:42.093Z,8.40
2022-12-26T20:33:09.416Z,8.40
2022-12-26T20:35:36.459Z,8.40
2022-12-26T20:38:03.337Z,8.40
2022-12-26T20:40:30.183Z,8.40
2022-12-26T20:42:58.503Z,8.40
2022-12-26T20:45:25.365Z,8.40
2022-12-26T20:47:52.195Z,8.40
2022-12-26T20:50:19.308Z,8.40
2022-12-26T20:52:46.168Z,8.40
2022-12-26T20:55:13.704Z,8.40
2022-12-26T20:57:40.515Z,8.40
2022-12-26T21:00:10.473Z,8.30
2022-12-26T21:02:37.378Z,8.30
2022-12-26T21:05:05.016Z,8.30
2022-12-26T21:07:32.584Z,8.30
2022-12-26T21:09:59.388Z,8.30
2022-12-26T21:12:26.235Z,8.30
2022-12-26T21:14:53.075Z,8.30
2022-12-26T21:17:21.808Z,8.20
2022-12-26T21:19:48.677Z,8.20
2022-12-26T21:22:15.618Z,8.10
2022-12-26T21:24:42.465Z,8.10
2022-12-26T21:27:09.779Z,8.20
2022-12-26T21:29:37.790Z,8.20
2022-12-26T21:32:05.338Z,8.20
2022-12-26T21:34:34.194Z,8.20
2022-12-26T21:37:19.827Z,8.20
2022-12-26T21:39:47.380Z,8.20
2022-12-26T21:42:16.094Z,8.20
2022-12-26T21:44:43.607Z,8.10
2022-12-26T21:47:10.566Z,8.10
2022-12-26T21:49:38.732Z,8.00
2022-12-26T21:52:06.748Z,7.90
2022-12-26T21:54:52.322Z,7.80
2022-12-26T21:57:19.610Z,7.70
2022-12-26T21:59:55.944Z,7.70
2022-12-26T22:02:42.307Z,7.70
2022-12-26T22:05:10.682Z,7.60
2022-12-26T22:07:37.564Z,7.50
2022-12-26T22:10:05.293Z,7.40
2022-12-26T22:12:50.737Z,7.40
2022-12-26T22:15:36.275Z,7.30
2022-12-26T22:18:03.399Z,7.30
2022-12-26T22:20:33.038Z,7.20
2022-12-26T22:22:59.852Z,7.20
2022-12-26T22:25:26.785Z,7.10
2022-12-26T22:27:53.624Z,7.10
2022-12-26T22:30:20.424Z,7.10
2022-12-26T22:32:47.225Z,7.00
2022-12-26T22:35:18.651Z,7.00
2022-12-26T22:37:47.342Z,7.00
2022-12-26T22:40:14.279Z,7.00
2022-12-26T22:42:41.192Z,6.90
2022-12-26T22:45:08.998Z,6.90
2022-12-26T22:47:35.895Z,7.00
2022-12-26T22:50:02.770Z,6.90
2022-12-26T22:52:29.655Z,6.90
2022-12-26T22:54:57.825Z,6.90
2022-12-26T22:57:24.714Z,6.90
2022-12-26T23:00:08.176Z,6.90
2022-12-26T23:02:35.967Z,6.90
2022-12-26T23:05:03.840Z,6.90
2022-12-26T23:07:31.179Z,6.90
2022-12-26T23:10:00.463Z,6.80
2022-12-26T23:12:43.221Z,6.80
2022-12-26T23:15:12.611Z,6.80
2022-12-26T23:18:01.701Z,6.80
2022-12-26T23:20:53.184Z,6.80
2022-12-26T23:23:20.815Z,6.80
2022-12-26T23:25:49.560Z,6.80
2022-12-26T23:28:35.289Z,6.80
2022-12-26T23:31:03.583Z,6.90
2022-12-26T23:33:31.043Z,6.90
2022-12-26T23:35:58.363Z,7.00
2022-12-26T23:38:25.484Z,6.90
2022-12-26T23:40:53.758Z,6.90
2022-12-26T23:43:20.639Z,6.80
2022-12-26T23:45:47.482Z,6.70
2022-12-26T23:48:14.321Z,6.70
2022-12-26T23:50:41.291Z,6.70
2022-12-26T23:53:08.309Z,6.60
2022-12-26T23:55:35.234Z,6.60
2022-12-26T23:58:03.472Z,6.50
